sensor_id;sensor_type;location;lat;lon;timestamp;P1;durP1;ratioP1;P2;durP2;ratioP2
77544;SDS011;66672;50.328;7.610;2023-12-20T00:02:13;18.30;;;17.10;;
77544;SDS011;66672;50.328;7.610;2023-12-20T00:04:39;17.77;;;16.60;;
77544;SDS011;66672;50.328;7.610;2023-12-20T00:07:04;18.20;;;17.00;;
77544;SDS011;66672;50.328;7.610;2023-12-20T00:09:29;18.10;;;16.90;;
77544;SDS011;66672;50.328;7.610;2023-12-20T00:11:54;17.92;;;16.83;;
77544;SDS011;66672;50.328;7.610;2023-12-20T00:14:19;17.50;;;16.40;;
77544;SDS011;66672;50.328;7.610;2023-12-20T00:16:45;17.17;;;16.08;;
77544;SDS011;66672;50.328;7.610;2023-12-20T00:19:10;18.08;;;16.88;;
77544;SDS011;66672;50.328;7.610;2023-12-20T00:21:35;17.60;;;16.50;;
77544;SDS011;66672;50.328;7.610;2023-12-20T00:24:00;18.00;;;16.80;;
77544;SDS011;66672;50.328;7.610;2023-12-20T00:26:26;18.17;;;16.98;;
77544;SDS011;66672;50.328;7.610;2023-12-20T00:28:53;17.83;;;16.63;;
77544;SDS011;66672;50.328;7.610;2023-12-20T00:31:18;18.30;;;17.10;;
77544;SDS011;66672;50.328;7.610;2023-12-20T00:33:43;18.67;;;17.48;;
77544;SDS011;66672;50.328;7.610;2023-12-20T00:36:09;18.60;;;17.40;;
77544;SDS011;66672;50.328;7.610;2023-12-20T00:38:34;17.85;;;16.73;;
77544;SDS011;66672;50.328;7.610;2023-12-20T00:40:59;18.10;;;16.90;;
77544;SDS011;66672;50.328;7.610;2023-12-20T00:43:25;18.03;;;16.83;;
77544;SDS011;66672;50.328;7.610;2023-12-20T00:45:50;17.40;;;16.30;;
77544;SDS011;66672;50.328;7.610;2023-12-20T00:48:15;17.90;;;16.80;;
77544;SDS011;66672;50.328;7.610;2023-12-20T00:50:40;17.67;;;16.58;;
77544;SDS011;66672;50.328;7.610;2023-12-20T00:53:05;18.30;;;17.10;;
77544;SDS011;66672;50.328;7.610;2023-12-20T00:55:30;18.27;;;17.08;;
77544;SDS011;66672;50.328;7.610;2023-12-20T00:57:56;17.70;;;16.60;;
77544;SDS011;66672;50.328;7.610;2023-12-20T01:00:21;17.77;;;16.67;;
77544;SDS011;66672;50.328;7.610;2023-12-20T01:02:46;18.45;;;17.25;;
77544;SDS011;66672;50.328;7.610;2023-12-20T01:05:14;17.58;;;16.48;;
77544;SDS011;66672;50.328;7.610;2023-12-20T01:07:39;17.90;;;16.70;;
77544;SDS011;66672;50.328;7.610;2023-12-20T01:10:07;17.45;;;16.35;;
77544;SDS011;66672;50.328;7.610;2023-12-20T01:12:32;17.65;;;16.55;;
77544;SDS011;66672;50.328;7.610;2023-12-20T01:14:57;17.80;;;16.70;;
77544;SDS011;66672;50.328;7.610;2023-12-20T01:17:23;17.48;;;16.38;;
77544;SDS011;66672;50.328;7.610;2023-12-20T01:19:48;17.70;;;16.50;;
77544;SDS011;66672;50.328;7.610;2023-12-20T01:22:13;18.15;;;16.95;;
77544;SDS011;66672;50.328;7.610;2023-12-20T01:24:39;18.05;;;16.95;;
77544;SDS011;66672;50.328;7.610;2023-12-20T01:27:04;17.70;;;16.60;;
77544;SDS011;66672;50.328;7.610;2023-12-20T01:29:29;17.67;;;16.58;;
77544;SDS011;66672;50.328;7.610;2023-12-20T01:31:54;17.52;;;16.42;;
77544;SDS011;66672;50.328;7.610;2023-12-20T01:34:20;17.90;;;16.80;;
77544;SDS011;66672;50.328;7.610;2023-12-20T01:36:45;18.13;;;17.02;;
77544;SDS011;66672;50.328;7.610;2023-12-20T01:39:10;18.20;;;17.00;;
77544;SDS011;66672;50.328;7.610;2023-12-20T01:41:36;18.58;;;17.38;;
77544;SDS011;66672;50.328;7.610;2023-12-20T01:44:01;17.98;;;16.88;;
77544;SDS011;66672;50.328;7.610;2023-12-20T01:46:26;18.20;;;17.10;;
77544;SDS011;66672;50.328;7.610;2023-12-20T01:48:51;17.75;;;16.65;;
77544;SDS011;66672;50.328;7.610;2023-12-20T01:51:17;17.95;;;16.80;;
77544;SDS011;66672;50.328;7.610;2023-12-20T01:53:42;18.73;;;17.52;;
77544;SDS011;66672;50.328;7.610;2023-12-20T01:56:08;18.05;;;16.85;;
77544;SDS011;66672;50.328;7.610;2023-12-20T01:58:34;18.75;;;17.55;;
77544;SDS011;66672;50.328;7.610;2023-12-20T02:00:59;18.13;;;16.92;;
77544;SDS011;66672;50.328;7.610;2023-12-20T02:03:24;17.67;;;16.58;;
77544;SDS011;66672;50.328;7.610;2023-12-20T02:05:53;17.85;;;16.70;;
77544;SDS011;66672;50.328;7.610;2023-12-20T02:08:18;18.05;;;16.95;;
77544;SDS011;66672;50.328;7.610;2023-12-20T02:10:43;17.98;;;16.88;;
77544;SDS011;66672;50.328;7.610;2023-12-20T02:13:08;18.45;;;17.15;;
77544;SDS011;66672;50.328;7.610;2023-12-20T02:15:34;18.27;;;16.98;;
77544;SDS011;66672;50.328;7.610;2023-12-20T02:18:01;17.95;;;16.85;;
77544;SDS011;66672;50.328;7.610;2023-12-20T02:20:26;17.83;;;16.65;;
77544;SDS011;66672;50.328;7.610;2023-12-20T02:22:52;18.88;;;17.58;;
77544;SDS011;66672;50.328;7.610;2023-12-20T02:25:17;18.23;;;16.92;;
77544;SDS011;66672;50.328;7.610;2023-12-20T02:27:42;17.83;;;16.63;;
77544;SDS011;66672;50.328;7.610;2023-12-20T02:30:07;18.77;;;17.58;;
77544;SDS011;66672;50.328;7.610;2023-12-20T02:32:33;18.60;;;17.40;;
77544;SDS011;66672;50.328;7.610;2023-12-20T02:34:58;18.25;;;17.05;;
77544;SDS011;66672;50.328;7.610;2023-12-20T02:37:23;18.20;;;17.00;;
77544;SDS011;66672;50.328;7.610;2023-12-20T02:39:48;17.90;;;16.80;;
77544;SDS011;66672;50.328;7.610;2023-12-20T02:42:14;18.17;;;16.98;;
77544;SDS011;66672;50.328;7.610;2023-12-20T02:44:39;17.90;;;16.80;;
77544;SDS011;66672;50.328;7.610;2023-12-20T02:47:04;18.30;;;17.10;;
77544;SDS011;66672;50.328;7.610;2023-12-20T02:49:32;18.40;;;17.25;;
77544;SDS011;66672;50.328;7.610;2023-12-20T02:51:57;18.50;;;17.30;;
77544;SDS011;66672;50.328;7.610;2023-12-20T02:54:23;18.52;;;17.27;;
77544;SDS011;66672;50.328;7.610;2023-12-20T02:56:48;18.27;;;17.08;;
77544;SDS011;66672;50.328;7.610;2023-12-20T02:59:13;18.42;;;17.23;;
77544;SDS011;66672;50.328;7.610;2023-12-20T03:01:42;18.30;;;17.10;;
77544;SDS011;66672;50.328;7.610;2023-12-20T03:04:07;18.30;;;17.10;;
77544;SDS011;66672;50.328;7.610;2023-12-20T03:06:33;18.23;;;17.02;;
77544;SDS011;66672;50.328;7.610;2023-12-20T03:08:58;18.55;;;17.25;;
77544;SDS011;66672;50.328;7.610;2023-12-20T03:11:26;18.58;;;17.38;;
77544;SDS011;66672;50.328;7.610;2023-12-20T03:13:51;18.92;;;17.63;;
77544;SDS011;66672;50.328;7.610;2023-12-20T03:16:16;18.98;;;17.67;;
77544;SDS011;66672;50.328;7.610;2023-12-20T03:18:41;19.98;;;18.58;;
77544;SDS011;66672;50.328;7.610;2023-12-20T03:21:07;18.52;;;17.33;;
77544;SDS011;66672;50.328;7.610;2023-12-20T03:23:32;19.35;;;18.05;;
77544;SDS011;66672;50.328;7.610;2023-12-20T03:25:58;18.92;;;17.63;;
77544;SDS011;66672;50.328;7.610;2023-12-20T03:28:24;19.52;;;18.13;;
77544;SDS011;66672;50.328;7.610;2023-12-20T03:30:49;19.08;;;17.77;;
77544;SDS011;66672;50.328;7.610;2023-12-20T03:33:14;20.02;;;18.60;;
77544;SDS011;66672;50.328;7.610;2023-12-20T03:35:39;19.52;;;18.13;;
77544;SDS011;66672;50.328;7.610;2023-12-20T03:38:07;19.90;;;18.50;;
77544;SDS011;66672;50.328;7.610;2023-12-20T03:40:33;19.42;;;18.13;;
77544;SDS011;66672;50.328;7.610;2023-12-20T03:42:58;19.17;;;17.88;;
77544;SDS011;66672;50.328;7.610;2023-12-20T03:45:23;19.98;;;18.50;;
77544;SDS011;66672;50.328;7.610;2023-12-20T03:47:48;18.95;;;17.75;;
77544;SDS011;66672;50.328;7.610;2023-12-20T03:50:14;21.15;;;19.33;;
77544;SDS011;66672;50.328;7.610;2023-12-20T03:52:39;19.98;;;18.50;;
77544;SDS011;66672;50.328;7.610;2023-12-20T03:55:05;20.85;;;19.25;;
77544;SDS011;66672;50.328;7.610;2023-12-20T03:57:30;20.48;;;18.90;;
77544;SDS011;66672;50.328;7.610;2023-12-20T03:59:55;20.42;;;18.67;;
77544;SDS011;66672;50.328;7.610;2023-12-20T04:02:20;20.02;;;18.52;;
77544;SDS011;66672;50.328;7.610;2023-12-20T04:04:45;20.52;;;18.98;;
77544;SDS011;66672;50.328;7.610;2023-12-20T04:07:11;20.60;;;18.95;;
77544;SDS011;66672;50.328;7.610;2023-12-20T04:09:36;20.60;;;18.88;;
77544;SDS011;66672;50.328;7.610;2023-12-20T04:12:01;20.42;;;18.73;;
77544;SDS011;66672;50.328;7.610;2023-12-20T04:14:26;20.48;;;18.98;;
77544;SDS011;66672;50.328;7.610;2023-12-20T04:16:52;20.38;;;18.88;;
77544;SDS011;66672;50.328;7.610;2023-12-20T04:19:17;22.35;;;19.15;;
77544;SDS011;66672;50.328;7.610;2023-12-20T04:21:42;20.75;;;19.15;;
77544;SDS011;66672;50.328;7.610;2023-12-20T04:24:07;20.88;;;19.13;;
77544;SDS011;66672;50.328;7.610;2023-12-20T04:26:33;21.45;;;19.58;;
77544;SDS011;66672;50.328;7.610;2023-12-20T04:28:58;20.63;;;19.08;;
77544;SDS011;66672;50.328;7.610;2023-12-20T04:31:23;20.63;;;18.92;;
77544;SDS011;66672;50.328;7.610;2023-12-20T04:33:48;20.42;;;18.92;;
77544;SDS011;66672;50.328;7.610;2023-12-20T04:36:13;20.70;;;19.20;;
77544;SDS011;66672;50.328;7.610;2023-12-20T04:38:39;20.58;;;18.98;;
77544;SDS011;66672;50.328;7.610;2023-12-20T04:41:04;19.98;;;18.35;;
77544;SDS011;66672;50.328;7.610;2023-12-20T04:43:29;20.45;;;18.80;;
77544;SDS011;66672;50.328;7.610;2023-12-20T04:45:55;20.02;;;18.42;;
77544;SDS011;66672;50.328;7.610;2023-12-20T04:48:20;20.27;;;18.55;;
77544;SDS011;66672;50.328;7.610;2023-12-20T04:50:45;20.35;;;18.85;;
77544;SDS011;66672;50.328;7.610;2023-12-20T04:53:10;21.02;;;19.20;;
77544;SDS011;66672;50.328;7.610;2023-12-20T04:55:35;20.00;;;18.60;;
77544;SDS011;66672;50.328;7.610;2023-12-20T04:58:01;21.00;;;19.30;;
77544;SDS011;66672;50.328;7.610;2023-12-20T05:00:26;20.75;;;19.10;;
77544;SDS011;66672;50.328;7.610;2023-12-20T05:02:51;20.58;;;19.08;;
77544;SDS011;66672;50.328;7.610;2023-12-20T05:05:17;20.15;;;18.65;;
77544;SDS011;66672;50.328;7.610;2023-12-20T05:07:43;21.02;;;19.20;;
77544;SDS011;66672;50.328;7.610;2023-12-20T05:10:08;20.58;;;18.98;;
77544;SDS011;66672;50.328;7.610;2023-12-20T05:12:33;20.50;;;18.95;;
77544;SDS011;66672;50.328;7.610;2023-12-20T05:14:59;20.38;;;18.75;;
77544;SDS011;66672;50.328;7.610;2023-12-20T05:17:27;19.75;;;18.15;;
77544;SDS011;66672;50.328;7.610;2023-12-20T05:19:52;19.42;;;18.02;;
77544;SDS011;66672;50.328;7.610;2023-12-20T05:22:19;20.20;;;18.70;;
77544;SDS011;66672;50.328;7.610;2023-12-20T05:24:44;20.58;;;19.13;;
77544;SDS011;66672;50.328;7.610;2023-12-20T05:27:10;20.70;;;18.63;;
77544;SDS011;66672;50.328;7.610;2023-12-20T05:29:36;19.95;;;18.52;;
77544;SDS011;66672;50.328;7.610;2023-12-20T05:32:01;20.00;;;18.52;;
77544;SDS011;66672;50.328;7.610;2023-12-20T05:34:26;20.40;;;18.55;;
77544;SDS011;66672;50.328;7.610;2023-12-20T05:36:51;19.70;;;18.17;;
77544;SDS011;66672;50.328;7.610;2023-12-20T05:39:16;19.45;;;18.02;;
77544;SDS011;66672;50.328;7.610;2023-12-20T05:41:42;19.95;;;18.17;;
77544;SDS011;66672;50.328;7.610;2023-12-20T05:44:07;19.92;;;18.27;;
77544;SDS011;66672;50.328;7.610;2023-12-20T05:46:32;20.05;;;18.35;;
77544;SDS011;66672;50.328;7.610;2023-12-20T05:48:58;19.90;;;18.27;;
77544;SDS011;66672;50.328;7.610;2023-12-20T05:51:23;19.77;;;18.33;;
77544;SDS011;66672;50.328;7.610;2023-12-20T05:53:48;19.40;;;17.90;;
77544;SDS011;66672;50.328;7.610;2023-12-20T05:56:14;19.83;;;18.42;;
77544;SDS011;66672;50.328;7.610;2023-12-20T05:58:40;19.90;;;18.40;;
77544;SDS011;66672;50.328;7.610;2023-12-20T06:01:05;19.42;;;17.98;;
77544;SDS011;66672;50.328;7.610;2023-12-20T06:03:32;20.13;;;18.58;;
77544;SDS011;66672;50.328;7.610;2023-12-20T06:05:57;19.52;;;17.92;;
77544;SDS011;66672;50.328;7.610;2023-12-20T06:08:23;19.35;;;17.80;;
77544;SDS011;66672;50.328;7.610;2023-12-20T06:10:48;19.52;;;17.95;;
77544;SDS011;66672;50.328;7.610;2023-12-20T06:13:14;21.00;;;18.80;;
77544;SDS011;66672;50.328;7.610;2023-12-20T06:15:39;19.45;;;18.05;;
77544;SDS011;66672;50.328;7.610;2023-12-20T06:18:05;20.13;;;18.73;;
77544;SDS011;66672;50.328;7.610;2023-12-20T06:20:30;20.40;;;18.50;;
77544;SDS011;66672;50.328;7.610;2023-12-20T06:22:55;20.45;;;18.85;;
77544;SDS011;66672;50.328;7.610;2023-12-20T06:25:20;22.73;;;20.65;;
77544;SDS011;66672;50.328;7.610;2023-12-20T06:27:45;19.50;;;17.92;;
77544;SDS011;66672;50.328;7.610;2023-12-20T06:30:11;19.60;;;18.27;;
77544;SDS011;66672;50.328;7.610;2023-12-20T06:32:36;19.38;;;17.83;;
77544;SDS011;66672;50.328;7.610;2023-12-20T06:35:02;19.75;;;18.15;;
77544;SDS011;66672;50.328;7.610;2023-12-20T06:37:29;20.33;;;18.23;;
77544;SDS011;66672;50.328;7.610;2023-12-20T06:39:55;19.55;;;18.10;;
77544;SDS011;66672;50.328;7.610;2023-12-20T06:42:21;19.33;;;17.75;;
77544;SDS011;66672;50.328;7.610;2023-12-20T06:44:46;21.13;;;19.23;;
77544;SDS011;66672;50.328;7.610;2023-12-20T06:47:12;19.73;;;18.40;;
77544;SDS011;66672;50.328;7.610;2023-12-20T06:49:39;19.27;;;17.95;;
77544;SDS011;66672;50.328;7.610;2023-12-20T06:52:04;19.48;;;17.73;;
77544;SDS011;66672;50.328;7.610;2023-12-20T06:54:29;19.48;;;17.77;;
77544;SDS011;66672;50.328;7.610;2023-12-20T06:56:54;19.10;;;17.60;;
77544;SDS011;66672;50.328;7.610;2023-12-20T06:59:19;27.33;;;24.42;;
77544;SDS011;66672;50.328;7.610;2023-12-20T07:01:47;20.02;;;18.02;;
77544;SDS011;66672;50.328;7.610;2023-12-20T07:04:12;19.70;;;18.20;;
77544;SDS011;66672;50.328;7.610;2023-12-20T07:06:37;25.38;;;22.90;;
77544;SDS011;66672;50.328;7.610;2023-12-20T07:09:03;21.35;;;19.23;;
77544;SDS011;66672;50.328;7.610;2023-12-20T07:11:28;19.65;;;18.02;;
77544;SDS011;66672;50.328;7.610;2023-12-20T07:13:53;20.40;;;18.70;;
77544;SDS011;66672;50.328;7.610;2023-12-20T07:16:18;20.13;;;18.50;;
77544;SDS011;66672;50.328;7.610;2023-12-20T07:18:43;19.80;;;18.10;;
77544;SDS011;66672;50.328;7.610;2023-12-20T07:21:08;19.58;;;17.98;;
77544;SDS011;66672;50.328;7.610;2023-12-20T07:23:34;19.70;;;18.15;;
77544;SDS011;66672;50.328;7.610;2023-12-20T07:25:59;19.23;;;17.83;;
77544;SDS011;66672;50.328;7.610;2023-12-20T07:28:24;21.00;;;19.30;;
77544;SDS011;66672;50.328;7.610;2023-12-20T07:30:49;19.70;;;18.20;;
77544;SDS011;66672;50.328;7.610;2023-12-20T07:33:15;19.63;;;17.95;;
77544;SDS011;66672;50.328;7.610;2023-12-20T07:35:40;19.35;;;17.83;;
77544;SDS011;66672;50.328;7.610;2023-12-20T07:38:05;19.75;;;18.25;;
77544;SDS011;66672;50.328;7.610;2023-12-20T07:40:31;20.15;;;18.63;;
77544;SDS011;66672;50.328;7.610;2023-12-20T07:42:56;19.55;;;18.00;;
77544;SDS011;66672;50.328;7.610;2023-12-20T07:45:24;20.42;;;18.80;;
77544;SDS011;66672;50.328;7.610;2023-12-20T07:47:49;20.42;;;18.92;;
77544;SDS011;66672;50.328;7.610;2023-12-20T07:50:15;19.63;;;18.08;;
77544;SDS011;66672;50.328;7.610;2023-12-20T07:52:40;19.38;;;17.88;;
77544;SDS011;66672;50.328;7.610;2023-12-20T07:55:05;20.35;;;18.65;;
77544;SDS011;66672;50.328;7.610;2023-12-20T07:57:31;19.67;;;18.08;;
77544;SDS011;66672;50.328;7.610;2023-12-20T07:59:56;20.23;;;18.20;;
77544;SDS011;66672;50.328;7.610;2023-12-20T08:02:21;20.33;;;18.27;;
77544;SDS011;66672;50.328;7.610;2023-12-20T08:04:46;20.35;;;18.65;;
77544;SDS011;66672;50.328;7.610;2023-12-20T08:07:11;19.98;;;18.23;;
77544;SDS011;66672;50.328;7.610;2023-12-20T08:09:37;20.17;;;18.48;;
77544;SDS011;66672;50.328;7.610;2023-12-20T08:12:02;19.98;;;18.17;;
77544;SDS011;66672;50.328;7.610;2023-12-20T08:14:27;19.83;;;18.13;;
77544;SDS011;66672;50.328;7.610;2023-12-20T08:16:52;20.63;;;18.75;;
77544;SDS011;66672;50.328;7.610;2023-12-20T08:19:18;19.80;;;18.10;;
77544;SDS011;66672;50.328;7.610;2023-12-20T08:21:43;20.30;;;18.42;;
77544;SDS011;66672;50.328;7.610;2023-12-20T08:24:08;19.63;;;17.92;;
77544;SDS011;66672;50.328;7.610;2023-12-20T08:26:33;20.10;;;18.50;;
77544;SDS011;66672;50.328;7.610;2023-12-20T08:28:58;19.35;;;17.70;;
77544;SDS011;66672;50.328;7.610;2023-12-20T08:31:24;19.67;;;18.02;;
77544;SDS011;66672;50.328;7.610;2023-12-20T08:33:49;20.52;;;18.58;;
77544;SDS011;66672;50.328;7.610;2023-12-20T08:36:14;20.00;;;18.27;;
77544;SDS011;66672;50.328;7.610;2023-12-20T08:38:40;19.25;;;17.67;;
77544;SDS011;66672;50.328;7.610;2023-12-20T08:41:05;19.83;;;18.20;;
77544;SDS011;66672;50.328;7.610;2023-12-20T08:43:31;20.25;;;18.42;;
77544;SDS011;66672;50.328;7.610;2023-12-20T08:45:56;19.67;;;17.95;;
77544;SDS011;66672;50.328;7.610;2023-12-20T08:48:21;20.67;;;18.50;;
77544;SDS011;66672;50.328;7.610;2023-12-20T08:50:46;20.13;;;18.42;;
77544;SDS011;66672;50.328;7.610;2023-12-20T08:53:13;20.33;;;18.52;;
77544;SDS011;66672;50.328;7.610;2023-12-20T08:55:40;20.15;;;18.40;;
77544;SDS011;66672;50.328;7.610;2023-12-20T08:58:05;20.50;;;18.70;;
77544;SDS011;66672;50.328;7.610;2023-12-20T09:00:32;20.27;;;18.45;;
77544;SDS011;66672;50.328;7.610;2023-12-20T09:02:57;19.55;;;18.05;;
77544;SDS011;66672;50.328;7.610;2023-12-20T09:05:22;20.45;;;18.40;;
77544;SDS011;66672;50.328;7.610;2023-12-20T09:07:47;20.90;;;19.30;;
77544;SDS011;66672;50.328;7.610;2023-12-20T09:10:12;20.23;;;18.35;;
77544;SDS011;66672;50.328;7.610;2023-12-20T09:12:38;23.38;;;21.52;;
77544;SDS011;66672;50.328;7.610;2023-12-20T09:15:05;21.10;;;18.88;;
77544;SDS011;66672;50.328;7.610;2023-12-20T09:17:31;21.65;;;19.83;;
77544;SDS011;66672;50.328;7.610;2023-12-20T09:19:56;19.70;;;18.00;;
77544;SDS011;66672;50.328;7.610;2023-12-20T09:22:21;21.70;;;20.20;;
77544;SDS011;66672;50.328;7.610;2023-12-20T09:24:46;21.50;;;19.45;;
77544;SDS011;66672;50.328;7.610;2023-12-20T09:27:12;21.67;;;20.05;;
77544;SDS011;66672;50.328;7.610;2023-12-20T09:29:37;21.58;;;19.85;;
77544;SDS011;66672;50.328;7.610;2023-12-20T09:32:02;22.08;;;20.00;;
77544;SDS011;66672;50.328;7.610;2023-12-20T09:34:27;21.80;;;20.20;;
77544;SDS011;66672;50.328;7.610;2023-12-20T09:36:52;20.50;;;18.90;;
77544;SDS011;66672;50.328;7.610;2023-12-20T09:39:18;21.25;;;19.67;;
77544;SDS011;66672;50.328;7.610;2023-12-20T09:42:03;21.23;;;19.67;;
77544;SDS011;66672;50.328;7.610;2023-12-20T09:44:28;20.13;;;18.40;;
77544;SDS011;66672;50.328;7.610;2023-12-20T09:46:54;22.00;;;20.17;;
77544;SDS011;66672;50.328;7.610;2023-12-20T09:49:20;21.65;;;19.85;;
77544;SDS011;66672;50.328;7.610;2023-12-20T09:51:46;23.75;;;22.10;;
77544;SDS011;66672;50.328;7.610;2023-12-20T09:54:12;23.48;;;21.33;;
77544;SDS011;66672;50.328;7.610;2023-12-20T09:56:37;21.65;;;20.08;;
77544;SDS011;66672;50.328;7.610;2023-12-20T09:59:03;22.17;;;20.48;;
77544;SDS011;66672;50.328;7.610;2023-12-20T10:01:28;21.17;;;19.67;;
77544;SDS011;66672;50.328;7.610;2023-12-20T10:03:54;23.80;;;21.70;;
77544;SDS011;66672;50.328;7.610;2023-12-20T10:06:19;21.08;;;19.27;;
77544;SDS011;66672;50.328;7.610;2023-12-20T10:08:44;20.40;;;18.67;;
77544;SDS011;66672;50.328;7.610;2023-12-20T10:11:09;22.55;;;20.65;;
77544;SDS011;66672;50.328;7.610;2023-12-20T10:13:38;22.38;;;20.52;;
77544;SDS011;66672;50.328;7.610;2023-12-20T10:16:04;25.05;;;22.40;;
77544;SDS011;66672;50.328;7.610;2023-12-20T10:18:29;22.27;;;20.48;;
77544;SDS011;66672;50.328;7.610;2023-12-20T10:20:54;21.35;;;19.80;;
77544;SDS011;66672;50.328;7.610;2023-12-20T10:23:20;22.02;;;20.33;;
77544;SDS011;66672;50.328;7.610;2023-12-20T10:25:53;21.15;;;19.50;;
77544;SDS011;66672;50.328;7.610;2023-12-20T10:28:20;21.88;;;19.85;;
77544;SDS011;66672;50.328;7.610;2023-12-20T10:30:47;19.80;;;18.23;;
77544;SDS011;66672;50.328;7.610;2023-12-20T10:33:12;22.08;;;20.20;;
77544;SDS011;66672;50.328;7.610;2023-12-20T10:35:38;20.88;;;18.98;;
77544;SDS011;66672;50.328;7.610;2023-12-20T10:38:04;21.02;;;19.33;;
77544;SDS011;66672;50.328;7.610;2023-12-20T10:40:35;21.92;;;19.77;;
77544;SDS011;66672;50.328;7.610;2023-12-20T10:43:04;20.45;;;18.52;;
77544;SDS011;66672;50.328;7.610;2023-12-20T10:45:30;20.67;;;19.08;;
77544;SDS011;66672;50.328;7.610;2023-12-20T10:47:55;21.42;;;18.33;;
77544;SDS011;66672;50.328;7.610;2023-12-20T10:50:21;20.88;;;18.85;;
77544;SDS011;66672;50.328;7.610;2023-12-20T10:52:46;20.77;;;18.98;;
77544;SDS011;66672;50.328;7.610;2023-12-20T10:55:12;20.02;;;18.50;;
77544;SDS011;66672;50.328;7.610;2023-12-20T10:57:37;20.63;;;18.75;;
77544;SDS011;66672;50.328;7.610;2023-12-20T11:00:03;20.08;;;18.35;;
77544;SDS011;66672;50.328;7.610;2023-12-20T11:02:33;20.00;;;18.40;;
77544;SDS011;66672;50.328;7.610;2023-12-20T11:05:06;19.70;;;18.10;;
77544;SDS011;66672;50.328;7.610;2023-12-20T11:07:39;19.90;;;18.20;;
77544;SDS011;66672;50.328;7.610;2023-12-20T11:10:13;20.52;;;17.83;;
77544;SDS011;66672;50.328;7.610;2023-12-20T11:15:11;19.50;;;17.90;;
77544;SDS011;66672;50.328;7.610;2023-12-20T11:17:38;19.83;;;18.23;;
77544;SDS011;66672;50.328;7.610;2023-12-20T11:20:04;20.30;;;18.30;;
77544;SDS011;66672;50.328;7.610;2023-12-20T11:22:30;20.33;;;18.42;;
77544;SDS011;66672;50.328;7.610;2023-12-20T11:25:02;21.17;;;19.27;;
77544;SDS011;66672;50.328;7.610;2023-12-20T11:27:28;20.40;;;18.17;;
77544;SDS011;66672;50.328;7.610;2023-12-20T11:29:54;19.58;;;17.65;;
77544;SDS011;66672;50.328;7.610;2023-12-20T11:34:51;20.23;;;18.52;;
77544;SDS011;66672;50.328;7.610;2023-12-20T11:37:19;20.40;;;18.55;;
77544;SDS011;66672;50.328;7.610;2023-12-20T11:39:44;19.95;;;18.25;;
77544;SDS011;66672;50.328;7.610;2023-12-20T11:42:09;20.38;;;18.42;;
77544;SDS011;66672;50.328;7.610;2023-12-20T11:44:35;20.83;;;19.10;;
77544;SDS011;66672;50.328;7.610;2023-12-20T11:47:01;19.88;;;18.42;;
77544;SDS011;66672;50.328;7.610;2023-12-20T11:49:26;19.90;;;18.30;;
77544;SDS011;66672;50.328;7.610;2023-12-20T11:51:54;21.48;;;19.35;;
77544;SDS011;66672;50.328;7.610;2023-12-20T11:54:19;20.05;;;18.45;;
77544;SDS011;66672;50.328;7.610;2023-12-20T11:56:44;19.52;;;17.95;;
77544;SDS011;66672;50.328;7.610;2023-12-20T11:59:10;19.45;;;18.00;;
77544;SDS011;66672;50.328;7.610;2023-12-20T12:01:36;20.52;;;18.70;;
77544;SDS011;66672;50.328;7.610;2023-12-20T12:04:02;19.40;;;17.67;;
77544;SDS011;66672;50.328;7.610;2023-12-20T12:06:27;20.25;;;18.55;;
77544;SDS011;66672;50.328;7.610;2023-12-20T12:08:52;20.25;;;18.60;;
77544;SDS011;66672;50.328;7.610;2023-12-20T12:11:17;19.92;;;18.25;;
77544;SDS011;66672;50.328;7.610;2023-12-20T12:13:42;20.33;;;18.42;;
77544;SDS011;66672;50.328;7.610;2023-12-20T12:16:08;20.00;;;18.25;;
77544;SDS011;66672;50.328;7.610;2023-12-20T12:18:33;19.92;;;18.27;;
77544;SDS011;66672;50.328;7.610;2023-12-20T12:20:59;20.33;;;18.73;;
77544;SDS011;66672;50.328;7.610;2023-12-20T12:23:25;19.95;;;18.45;;
77544;SDS011;66672;50.328;7.610;2023-12-20T12:25:50;19.52;;;18.13;;
77544;SDS011;66672;50.328;7.610;2023-12-20T12:28:15;19.80;;;18.17;;
77544;SDS011;66672;50.328;7.610;2023-12-20T12:30:40;20.05;;;18.40;;
77544;SDS011;66672;50.328;7.610;2023-12-20T12:33:06;19.75;;;18.25;;
77544;SDS011;66672;50.328;7.610;2023-12-20T12:35:31;20.60;;;18.98;;
77544;SDS011;66672;50.328;7.610;2023-12-20T12:37:58;22.38;;;20.23;;
77544;SDS011;66672;50.328;7.610;2023-12-20T12:40:24;20.75;;;18.77;;
77544;SDS011;66672;50.328;7.610;2023-12-20T12:42:49;20.27;;;18.80;;
77544;SDS011;66672;50.328;7.610;2023-12-20T12:45:14;20.50;;;18.67;;
77544;SDS011;66672;50.328;7.610;2023-12-20T12:47:40;20.48;;;18.73;;
77544;SDS011;66672;50.328;7.610;2023-12-20T12:50:05;20.55;;;18.50;;
77544;SDS011;66672;50.328;7.610;2023-12-20T12:52:31;19.98;;;18.52;;
77544;SDS011;66672;50.328;7.610;2023-12-20T12:54:56;20.02;;;18.33;;
77544;SDS011;66672;50.328;7.610;2023-12-20T12:57:22;20.90;;;19.00;;
77544;SDS011;66672;50.328;7.610;2023-12-20T12:59:47;20.60;;;18.67;;
77544;SDS011;66672;50.328;7.610;2023-12-20T13:02:12;20.92;;;18.88;;
77544;SDS011;66672;50.328;7.610;2023-12-20T13:04:38;21.17;;;19.40;;
77544;SDS011;66672;50.328;7.610;2023-12-20T13:07:03;19.98;;;18.42;;
77544;SDS011;66672;50.328;7.610;2023-12-20T13:09:29;20.90;;;18.98;;
77544;SDS011;66672;50.328;7.610;2023-12-20T13:11:54;20.23;;;18.52;;
77544;SDS011;66672;50.328;7.610;2023-12-20T13:14:19;21.50;;;19.42;;
77544;SDS011;66672;50.328;7.610;2023-12-20T13:16:45;20.38;;;18.60;;
77544;SDS011;66672;50.328;7.610;2023-12-20T13:19:10;20.55;;;18.88;;
77544;SDS011;66672;50.328;7.610;2023-12-20T13:21:36;20.30;;;18.90;;
77544;SDS011;66672;50.328;7.610;2023-12-20T13:24:01;20.55;;;18.83;;
77544;SDS011;66672;50.328;7.610;2023-12-20T13:26:26;20.13;;;18.48;;
77544;SDS011;66672;50.328;7.610;2023-12-20T13:28:51;20.40;;;18.50;;
77544;SDS011;66672;50.328;7.610;2023-12-20T13:31:17;20.67;;;19.00;;
77544;SDS011;66672;50.328;7.610;2023-12-20T13:33:42;20.13;;;18.40;;
77544;SDS011;66672;50.328;7.610;2023-12-20T13:36:07;20.98;;;19.40;;
77544;SDS011;66672;50.328;7.610;2023-12-20T13:38:32;21.45;;;19.77;;
77544;SDS011;66672;50.328;7.610;2023-12-20T13:40:57;22.08;;;19.73;;
77544;SDS011;66672;50.328;7.610;2023-12-20T13:43:23;20.98;;;19.08;;
77544;SDS011;66672;50.328;7.610;2023-12-20T13:45:49;20.17;;;18.70;;
77544;SDS011;66672;50.328;7.610;2023-12-20T13:48:14;20.58;;;18.88;;
77544;SDS011;66672;50.328;7.610;2023-12-20T13:50:40;21.30;;;19.40;;
77544;SDS011;66672;50.328;7.610;2023-12-20T13:53:05;21.20;;;19.30;;
77544;SDS011;66672;50.328;7.610;2023-12-20T13:55:30;20.63;;;19.10;;
77544;SDS011;66672;50.328;7.610;2023-12-20T13:57:55;20.88;;;19.08;;
77544;SDS011;66672;50.328;7.610;2023-12-20T14:00:21;21.25;;;19.35;;
77544;SDS011;66672;50.328;7.610;2023-12-20T14:02:46;20.88;;;19.05;;
77544;SDS011;66672;50.328;7.610;2023-12-20T14:05:11;21.27;;;19.00;;
77544;SDS011;66672;50.328;7.610;2023-12-20T14:07:38;21.25;;;19.52;;
77544;SDS011;66672;50.328;7.610;2023-12-20T14:10:03;20.13;;;18.35;;
77544;SDS011;66672;50.328;7.610;2023-12-20T14:12:29;20.55;;;18.90;;
77544;SDS011;66672;50.328;7.610;2023-12-20T14:14:54;21.90;;;20.00;;
77544;SDS011;66672;50.328;7.610;2023-12-20T14:17:20;20.88;;;19.02;;